Time;durP1;ratioP1;P1;durP2;ratioP2;P2;SDS_P1;SDS_P2;PMS_P1;PMS_P2;Temp;Humidity;BMP_temperature;BMP_pressure;BME280_temperature;BME280_humidity;BME280_pressure;Samples;Min_cycle;Max_cycle;Signal;HPM_P1;HPM_P2
2021/06/22 00:00:47;;;;;;;;;;;;;;;;;;;;;
2021/06/22 00:08:01;;;;;;;;;;;;;;;;;;;;;
2021/06/22 00:10:48;;;;;;;21.52;12.80;;;16.60;99.90;;;;;;4932383;29;20095;-93
2021/06/22 00:13:15;;;;;;;16.27;12.55;;;16.50;99.90;;;;;;4988735;28;20047;-93
2021/06/22 00:15:45;;;;;;;19.92;12.73;;;16.50;99.90;;;;;;5060100;28;20075;-93
2021/06/22 00:18:37;;;;;;;24.10;15.43;;;16.40;99.90;;;;;;5042743;28;20491;-94
2021/06/22 00:21:14;;;;;;;22.27;13.82;;;16.40;99.90;;;;;;5022809;28;20053;-94
2021/06/22 00:23:45;;;;;;;21.98;14.23;;;16.40;99.90;;;;;;5032594;28;20364;-93
2021/06/22 00:27:12;;;;;;;19.10;13.60;;;16.40;99.90;;;;;;5032745;28;20048;-93
2021/06/22 00:30:53;;;;;;;18.55;13.75;;;16.30;99.90;;;;;;5135390;27;20206;-93
2021/06/22 00:34:35;;;;;;;22.00;14.57;;;16.30;99.90;;;;;;5112391;28;20070;-92
2021/06/22 00:37:35;;;;;;;;;;;;;;;;;;;;;
2021/06/22 00:40:29;;;;;;;24.13;15.80;;;16.20;99.90;;;;;;5110288;28;20044;-93
2021/06/22 00:43:05;;;;;;;;;;;16.10;99.90;;;;;;5120919;27;20449;-92
2021/06/22 00:45:45;;;;;;;;;;;;;;;;;;;;;
2021/06/22 00:48:45;;;;;;;22.55;17.35;;;16.00;99.90;;;;;;5114055;28;20047;-92
2021/06/22 00:52:49;;;;;;;;;;;;;;;;;;;;;
2021/06/22 00:56:09;;;;;;;;;;;;;;;;;;;;;
2021/06/22 01:03:20;;;;;;;;;;;;;;;;;;;;;
2021/06/22 01:13:11;;;;;;;31.50;23.65;;;16.20;99.90;;;;;;4889190;29;20473;-93
2021/06/22 01:22:53;;;;;;;31.10;20.73;;;16.30;99.90;;;;;;4984815;28;20459;-92
2021/06/22 01:26:49;;;;;;;25.15;19.92;;;16.20;99.90;;;;;;4969046;28;20129;-92
2021/06/22 01:34:16;;;;;;;;;;;;;;;;;;;;;
2021/06/22 01:37:41;;;;;;;;;;;;;;;;;;;;;
2021/06/22 01:44:38;;;;;;;;;;;;;;;;;;;;;
2021/06/22 01:51:22;;;;;;;;;;;16.00;99.90;;;;;;4931903;28;20476;-93
2021/06/22 01:54:24;;;;;;;;;;;;;;;;;;;;;
2021/06/22 02:01:53;;;;;;;;;;;;;;;;;;;;;
2021/06/22 02:05:15;;;;;;;;;;;;;;;;;;;;;
2021/06/22 02:08:24;;;;;;;;;;;16.00;99.90;;;;;;4987574;28;20074;-92
2021/06/22 02:22:20;;;;;;;30.10;18.52;;;16.00;99.90;;;;;;4878056;29;20461;-92
2021/06/22 02:25:22;;;;;;;;;;;;;;;;;;;;;
2021/06/22 02:36:25;;;;;;;;;;;;;;;;;;;;;
2021/06/22 02:50:18;;;;;;;;;;;;;;;;;;;;;
2021/06/22 02:53:01;;;;;;;;;;;;;;;;;;;;;
2021/06/22 02:56:06;;;;;;;;;;;;;;;;;;;;;
2021/06/22 02:58:52;;;;;;;;;;;;;;;;;;;;;
2021/06/22 03:01:35;;;;;;;36.33;23.90;;;16.10;99.90;;;;;;5034273;28;20050;-91
2021/06/22 03:04:49;;;;;;;;;;;;;;;;;;;;;
2021/06/22 03:08:00;;;;;;;;;;;;;;;;;;;;;
2021/06/22 03:11:04;;;;;;;33.22;24.63;;;16.10;99.90;;;;;;5084513;28;20050;-93
2021/06/22 03:13:36;;;;;;;39.90;25.75;;;16.00;99.90;;;;;;5103316;28;20138;-92
2021/06/22 03:16:36;;;;;;;40.42;26.08;;;16.10;99.90;;;;;;5102832;28;20061;-92
2021/06/22 03:19:05;;;;;;;39.83;28.08;;;16.10;99.90;;;;;;5100570;28;20115;-93
2021/06/22 03:21:47;;;;;;;41.47;26.70;;;16.00;99.90;;;;;;5094425;28;20132;-92
2021/06/22 03:24:21;;;;;;;42.70;27.92;;;16.00;99.90;;;;;;5102643;28;20100;-92
2021/06/22 03:26:52;;;;;;;39.83;27.83;;;16.00;99.90;;;;;;5098148;28;20051;-92
2021/06/22 03:29:39;;;;;;;41.22;27.38;;;16.00;99.90;;;;;;5055681;28;20131;-93
2021/06/22 03:32:25;;;;;;;51.00;28.80;;;16.00;99.90;;;;;;5068172;28;20052;-92
2021/06/22 03:34:56;;;;;;;50.42;30.77;;;16.00;99.90;;;;;;5068230;28;20045;-92
2021/06/22 03:37:23;;;;;;;58.97;36.25;;;16.10;99.90;;;;;;5071613;28;20460;-92
2021/06/22 03:39:52;;;;;;;53.80;34.42;;;16.10;99.90;;;;;;5054801;28;20079;-92
2021/06/22 03:42:29;;;;;;;65.15;38.10;;;16.10;99.90;;;;;;5069381;28;20056;-92
2021/06/22 03:45:21;;;;;;;;;;;;;;;;;;;;;
2021/06/22 03:48:19;;;;;;;;;;;;;;;;;;;;;
2021/06/22 03:51:19;;;;;;;;;;;;;;;;;;;;;
2021/06/22 03:53:59;;;;;;;74.72;39.22;;;16.20;99.90;;;;;;5063172;28;20049;-93
2021/06/22 03:57:20;;;;;;;69.75;39.38;;;16.20;99.90;;;;;;5067135;28;20041;-93
2021/06/22 03:59:58;;;;;;;;;;;;;;;;;;;;;
2021/06/22 04:03:15;;;;;;;;;;;;;;;;;;;;;
2021/06/22 04:06:10;;;;;;;56.30;33.45;;;16.20;99.90;;;;;;5088422;28;20044;-93
2021/06/22 04:08:55;;;;;;;52.90;32.00;;;16.20;99.90;;;;;;5098132;28;20130;-93
2021/06/22 04:11:59;;;;;;;45.42;29.50;;;16.30;99.90;;;;;;5019809;28;20171;-93
2021/06/22 04:31:33;;;;;;;;;;;16.10;99.90;;;;;;5536754;23;20073;-91
2021/06/22 04:34:10;;;;;;;48.13;30.80;;;16.20;99.90;;;;;;4992679;28;19930;-91
2021/06/22 04:37:08;;;;;;;54.20;31.75;;;16.20;99.90;;;;;;4917182;29;20051;-92
2021/06/22 04:39:39;;;;;;;46.22;32.08;;;16.30;99.90;;;;;;4932012;29;20084;-92
2021/06/22 04:42:06;;;;;;;45.00;31.08;;;16.30;99.90;;;;;;4935909;29;20106;-90
2021/06/22 04:44:53;;;;;;;;;;;16.30;99.90;;;;;;4929541;29;20055;-92
2021/06/22 04:47:31;;;;;;;39.17;27.13;;;16.30;99.90;;;;;;4924312;29;19930;-92
2021/06/22 04:50:05;;;;;;;40.78;27.85;;;16.40;99.90;;;;;;4929893;29;20043;-92
2021/06/22 04:53:04;;;;;;;41.67;27.08;;;16.40;99.90;;;;;;4880131;29;20071;-92
2021/06/22 04:55:32;;;;;;;32.33;24.63;;;16.40;99.90;;;;;;4903197;29;20040;-90
2021/06/22 04:58:18;;;;;;;37.28;25.33;;;16.40;99.90;;;;;;4865030;29;20077;-93
2021/06/22 05:01:20;;;;;;;37.97;26.83;;;16.40;99.90;;;;;;4863015;29;20128;-92
2021/06/22 05:04:40;;;;;;;37.63;27.95;;;16.40;99.90;;;;;;4859717;29;20053;-93
2021/06/22 05:07:39;;;;;;;;;;;;;;;;;;;;;
2021/06/22 05:14:29;;;;;;;33.25;25.02;;;16.50;99.90;;;;;;4797351;29;20074;-92
2021/06/22 05:17:24;;;;;;;31.70;23.73;;;16.60;99.90;;;;;;4812427;29;20051;-92
2021/06/22 05:20:45;;;;;;;29.33;22.02;;;16.60;99.90;;;;;;4793220;30;20094;-92
2021/06/22 05:23:22;;;;;;;27.40;22.67;;;16.60;99.90;;;;;;4770916;30;20066;-91
2021/06/22 05:25:57;;;;;;;28.38;23.17;;;16.70;99.90;;;;;;4788006;29;20154;-92
2021/06/22 05:28:25;;;;;;;28.30;22.02;;;16.80;99.90;;;;;;4795477;29;20529;-92
2021/06/22 05:30:52;;;;;;;23.35;20.75;;;16.80;99.90;;;;;;4822860;29;20078;-93
2021/06/22 05:33:19;;;;;;;26.17;21.20;;;16.90;99.90;;;;;;4822708;29;20057;-91
2021/06/22 05:35:49;;;;;;;27.52;20.45;;;17.00;99.90;;;;;;4823621;29;20043;-92
2021/06/22 05:38:47;;;;;;;24.92;20.27;;;17.00;99.90;;;;;;4836048;29;20131;-92
2021/06/22 05:41:58;;;;;;;25.85;19.63;;;17.10;99.90;;;;;;4845418;29;20122;-92
2021/06/22 05:44:46;;;;;;;25.75;19.65;;;17.10;99.90;;;;;;4869097;29;20347;-92
2021/06/22 05:47:17;;;;;;;23.55;18.95;;;17.10;99.90;;;;;;4879981;29;20053;-92
2021/06/22 05:49:48;;;;;;;21.90;19.10;;;17.10;99.90;;;;;;4904225;28;20046;-91
2021/06/22 05:52:53;;;;;;;23.95;17.73;;;17.10;99.90;;;;;;4997281;28;20048;-90
2021/06/22 05:59:57;;;;;;;21.77;17.15;;;17.10;99.90;;;;;;4997197;28;20106;-92
2021/06/22 06:02:56;;;;;;;14.85;13.35;;;17.20;99.90;;;;;;4936490;29;20103;-93
2021/06/22 06:05:26;;;;;;;14.85;12.57;;;17.40;99.90;;;;;;4935201;29;20056;-91
2021/06/22 06:08:15;;;;;;;14.98;12.02;;;17.40;99.90;;;;;;4908272;29;20052;-93
2021/06/22 06:10:42;;;;;;;13.73;10.50;;;17.60;99.90;;;;;;4927084;29;20044;-91
2021/06/22 06:13:34;;;;;;;16.80;12.15;;;17.60;99.90;;;;;;4919929;29;20152;-91
2021/06/22 06:16:27;;;;;;;10.40;8.98;;;17.60;99.90;;;;;;4921074;29;20203;-92
2021/06/22 06:18:55;;;;;;;10.85;9.35;;;17.70;99.90;;;;;;4923616;29;20040;-92
2021/06/22 06:22:09;;;;;;;10.15;7.97;;;17.80;99.90;;;;;;4994603;28;20054;-91
2021/06/22 06:25:48;;;;;;;11.60;7.10;;;17.80;99.90;;;;;;4986728;28;20110;-93
2021/06/22 06:28:45;;;;;;;7.70;6.38;;;18.00;99.90;;;;;;4986455;28;20046;-91
2021/06/22 06:31:14;;;;;;;8.02;6.25;;;18.20;99.90;;;;;;4999514;28;20054;-90
2021/06/22 06:33:41;;;;;;;7.40;5.78;;;18.40;99.90;;;;;;4992580;28;20105;-91
2021/06/22 06:36:08;;;;;;;6.65;5.65;;;18.50;99.90;;;;;;4983962;28;20058;-89
2021/06/22 07:08:24;;;;;;;3.47;2.53;;;21.50;99.90;;;;;;5021612;28;20519;-91
2021/06/22 07:11:19;;;;;;;3.60;2.40;;;21.30;99.90;;;;;;5033223;28;20115;-93
2021/06/22 07:28:36;;;;;;;;;;;;;;;;;;;;;
2021/06/22 07:32:10;;;;;;;;;;;;;;;;;;;;;
2021/06/22 07:34:49;;;;;;;6.82;2.80;;;20.20;99.90;;;;;;4988242;28;20050;-91
2021/06/22 07:37:31;;;;;;;;;;;;;;;;;;;;;
2021/06/22 07:45:04;;;;;;;;;;;;;;;;;;;;;
2021/06/22 07:48:19;;;;;;;5.32;2.10;;;21.00;99.90;;;;;;4903607;29;20041;-93
2021/06/22 07:51:23;;;;;;;5.55;1.80;;;21.40;99.90;;;;;;4902598;29;20108;-94
2021/06/22 07:55:27;;;;;;;;;;;;;;;;;;;;;
2021/06/22 08:02:35;;;;;;;4.90;2.10;;;21.80;99.90;;;;;;4895254;29;20121;-91
2021/06/22 08:05:10;;;;;;;6.97;2.20;;;21.70;99.90;;;;;;4882751;29;20504;-91
2021/06/22 08:07:40;;;;;;;4.13;2.40;;;21.40;99.90;;;;;;4892199;29;20092;-94
2021/06/22 08:10:10;;;;;;;9.55;2.15;;;21.00;99.90;;;;;;4917236;29;20071;-95
2021/06/22 08:13:13;;;;;;;3.67;1.80;;;20.80;99.90;;;;;;4918599;29;20096;-92
2021/06/22 08:15:40;;;;;;;6.05;2.08;;;20.60;99.90;;;;;;4894726;29;20436;-91
2021/06/22 08:18:14;;;;;;;4.10;2.33;;;20.60;99.90;;;;;;4915555;29;20499;-91
2021/06/22 08:20:44;;;;;;;4.35;2.22;;;20.60;99.90;;;;;;4907985;29;20048;-93
2021/06/22 08:23:14;;;;;;;3.45;2.33;;;20.50;99.90;;;;;;4916386;29;20048;-91
2021/06/22 08:25:42;;;;;;;4.05;2.22;;;20.50;99.90;;;;;;4956710;28;20113;-91
2021/06/22 08:28:11;;;;;;;7.07;2.63;;;20.60;99.90;;;;;;4977584;28;20058;-91
2021/06/22 08:30:41;;;;;;;5.05;2.65;;;20.50;99.90;;;;;;4958357;28;20058;-92
2021/06/22 08:33:12;;;;;;;6.82;2.90;;;20.40;99.90;;;;;;4973794;28;20073;-90
2021/06/22 08:35:40;;;;;;;9.02;2.75;;;20.30;99.90;;;;;;4971222;28;20474;-92
2021/06/22 08:38:13;;;;;;;5.45;2.85;;;20.30;99.90;;;;;;4969773;28;20051;-90
2021/06/22 08:40:43;;;;;;;3.05;2.53;;;20.30;99.90;;;;;;4989607;28;20051;-90
2021/06/22 08:43:49;;;;;;;5.95;2.78;;;20.30;99.90;;;;;;4959398;28;20059;-93
2021/06/22 08:46:49;;;;;;;5.55;2.70;;;20.30;99.90;;;;;;4888451;29;20139;-92
2021/06/22 08:53:33;;;;;;;5.68;2.00;;;20.70;99.90;;;;;;4868435;29;20122;-94
2021/06/22 08:56:09;;;;;;;5.13;2.42;;;21.00;99.90;;;;;;4898754;29;20052;-90
2021/06/22 09:02:29;;;;;;;7.18;2.22;;;21.40;99.90;;;;;;4919192;29;20162;-93
2021/06/22 09:04:58;;;;;;;7.80;2.33;;;21.60;99.90;;;;;;4915844;28;20055;-90
2021/06/22 09:07:56;;;;;;;3.80;2.00;;;21.80;99.90;;;;;;4969898;28;20051;-92
2021/06/22 09:10:56;;;;;;;;;;;;;;;;;;;;;
2021/06/22 09:14:41;;;;;;;5.63;2.30;;;21.70;99.90;;;;;;4977865;28;20055;-93
2021/06/22 09:25:08;;;;;;;5.50;2.28;;;21.80;99.90;;;;;;4963223;23;20045;-88
2021/06/22 09:27:57;;;;;;;7.25;1.80;;;22.00;99.90;;;;;;4959131;28;20502;-92
2021/06/22 09:30:41;;;;;;;5.07;2.40;;;21.80;99.90;;;;;;4966475;28;20079;-92
2021/06/22 09:33:19;;;;;;;4.95;2.70;;;21.50;99.90;;;;;;4969266;28;20054;-91
2021/06/22 09:35:48;;;;;;;4.47;2.58;;;21.00;99.90;;;;;;4966457;28;20093;-92
2021/06/22 09:38:17;;;;;;;4.43;2.75;;;20.60;99.90;;;;;;4963750;28;20091;-92
2021/06/22 09:40:44;;;;;;;6.10;2.95;;;20.40;99.90;;;;;;4969745;28;20062;-92
2021/06/22 09:43:18;;;;;;;6.95;3.10;;;20.30;99.90;;;;;;4975938;28;20050;-91
2021/06/22 09:46:58;;;;;;;8.05;3.70;;;20.30;99.90;;;;;;4974776;28;20099;-93
2021/06/22 09:49:31;;;;;;;10.90;3.90;;;20.10;99.90;;;;;;4970485;28;20051;-92
2021/06/22 09:52:15;;;;;;;;;;;19.90;99.90;;;;;;4958996;28;20051;-92
2021/06/22 09:54:42;;;;;;;5.70;3.20;;;19.80;99.90;;;;;;4968345;28;19933;-91
2021/06/22 09:57:17;;;;;;;6.55;3.15;;;19.80;99.90;;;;;;4968188;28;20061;-91
2021/06/22 10:00:23;;;;;;;;;;;;;;;;;;;;;
2021/06/22 10:02:54;;;;;;;9.07;3.33;;;20.20;99.90;;;;;;4955803;28;20047;-91
2021/06/22 10:05:21;;;;;;;4.22;3.03;;;20.50;99.90;;;;;;4970722;28;20062;-89
2021/06/22 10:08:01;;;;;;;4.60;3.20;;;20.70;99.90;;;;;;4972122;28;20451;-91
2021/06/22 10:10:36;;;;;;;15.82;3.47;;;20.80;99.90;;;;;;4970278;28;20394;-91
2021/06/22 10:13:09;;;;;;;4.68;3.22;;;21.10;99.90;;;;;;4964350;28;20458;-92
2021/06/22 10:15:36;;;;;;;7.25;3.47;;;21.20;99.90;;;;;;4965244;28;20057;-90
2021/06/22 10:18:06;;;;;;;4.55;3.75;;;21.20;99.90;;;;;;4960653;28;20039;-90
2021/06/22 10:20:33;;;;;;;8.27;4.90;;;21.10;99.90;;;;;;4966740;28;20592;-90
2021/06/22 10:23:03;;;;;;;11.30;5.55;;;20.80;99.90;;;;;;4961760;28;20046;-91
2021/06/22 10:25:30;;;;;;;7.60;5.38;;;20.60;99.90;;;;;;4956663;28;20086;-90
2021/06/22 10:28:07;;;;;;;7.43;5.65;;;20.50;99.90;;;;;;4954872;28;20053;-90
2021/06/22 10:30:34;;;;;;;7.85;6.38;;;20.30;99.90;;;;;;4972255;28;20106;-90
2021/06/22 10:33:03;;;;;;;11.27;7.32;;;20.20;99.90;;;;;;4962784;28;20129;-91
2021/06/22 10:35:30;;;;;;;9.57;6.38;;;20.20;99.90;;;;;;4963073;28;20162;-91
2021/06/22 10:38:07;;;;;;;10.23;7.47;;;20.10;99.90;;;;;;4970520;28;20442;-91
2021/06/22 10:40:54;;;;;;;;;;;;;;;;;;;;;
2021/06/22 10:43:40;;;;;;;7.18;6.53;;;20.10;99.90;;;;;;4959297;28;20046;-92
2021/06/22 10:46:41;;;;;;;12.95;7.20;;;20.00;99.90;;;;;;4963770;28;20055;-92
2021/06/22 10:49:18;;;;;;;12.20;7.18;;;20.00;99.90;;;;;;4974073;28;20593;-91
2021/06/22 10:51:56;;;;;;;8.63;7.45;;;19.90;99.90;;;;;;4985692;28;20055;-91
2021/06/22 10:54:49;;;;;;;10.23;7.35;;;19.80;99.90;;;;;;4988551;28;20121;-91
2021/06/22 10:57:17;;;;;;;;;;;19.90;99.90;;;;;;4972870;28;20043;-92
2021/06/22 11:00:02;;;;;;;10.38;7.20;;;19.90;99.90;;;;;;4959795;28;19927;-91
2021/06/22 11:03:04;;;;;;;11.02;6.95;;;19.90;99.90;;;;;;4958808;28;20122;-92
2021/06/22 11:05:49;;;;;;;7.07;6.35;;;20.00;99.90;;;;;;4977671;28;20419;-90
2021/06/22 11:08:16;;;;;;;11.40;6.95;;;19.90;99.90;;;;;;4975583;28;20093;-90
2021/06/22 11:10:58;;;;;;;10.07;7.00;;;19.90;99.90;;;;;;4958372;28;20054;-90
2021/06/22 11:13:47;;;;;;;8.27;5.80;;;19.90;99.90;;;;;;4961621;28;20130;-91
2021/06/22 11:16:20;;;;;;;7.72;6.35;;;19.90;99.90;;;;;;4964696;28;20374;-92
2021/06/22 11:19:00;;;;;;;12.70;6.70;;;19.90;99.90;;;;;;4961564;28;20047;-91
2021/06/22 11:21:41;;;;;;;8.00;5.70;;;19.80;99.90;;;;;;4967936;28;20047;-90
2021/06/22 11:24:17;;;;;;;10.83;6.70;;;19.70;99.90;;;;;;4980238;28;20129;-93
2021/06/22 11:35:30;;;;;;;12.15;7.22;;;18.90;99.90;;;;;;4862261;29;20316;-92
2021/06/22 11:39:18;;;;;;;;;;;;;;;;;;;;;
2021/06/22 11:42:15;;;;;;;10.55;8.73;;;18.60;99.90;;;;;;4778343;29;20042;-91
2021/06/22 11:45:36;;;;;;;8.95;8.07;;;18.60;99.90;;;;;;4837493;29;20078;-93
2021/06/22 11:48:29;;;;;;;11.73;8.93;;;18.60;99.90;;;;;;4834290;29;20449;-94
2021/06/22 11:51:43;;;;;;;9.63;8.27;;;18.50;99.90;;;;;;4824834;29;20061;-93
2021/06/22 11:54:56;;;;;;;;;;;;;;;;;;;;;
2021/06/22 12:01:38;;;;;;;;;;;;;;;;;;;;;
2021/06/22 12:04:35;;;;;;;14.68;8.38;;;18.10;99.90;;;;;;4789307;30;20183;-92
2021/06/22 12:14:56;;;;;;;;;;;;;;;;;;;;;
2021/06/22 12:18:32;;;;;;;12.45;8.60;;;17.80;99.90;;;;;;4923729;29;20155;-91
2021/06/22 12:25:02;;;;;;;14.60;8.35;;;17.50;99.90;;;;;;4906561;29;20067;-94
2021/06/22 12:27:30;;;;;;;9.88;7.57;;;17.40;99.90;;;;;;4904628;29;20067;-93
2021/06/22 12:33:43;;;;;;;23.00;10.98;;;17.20;99.90;;;;;;5030780;23;20062;-89
2021/06/22 12:36:14;;;;;;;15.27;11.02;;;17.10;99.90;;;;;;4971654;28;20355;-87
2021/06/22 12:38:44;;;;;;;19.10;10.38;;;17.20;99.90;;;;;;4971346;28;20043;-90
2021/06/22 12:41:11;;;;;;;19.73;12.52;;;17.40;99.90;;;;;;4970960;28;21457;-90
2021/06/22 12:43:41;;;;;;;13.90;10.75;;;18.20;99.90;;;;;;4966473;28;20109;-92
2021/06/22 12:46:08;;;;;;;10.50;7.97;;;19.40;99.90;;;;;;4974528;28;20058;-92
2021/06/22 12:49:01;;;;;;;7.15;6.10;;;20.10;99.90;;;;;;4968726;28;20110;-91
2021/06/22 12:51:55;;;;;;;9.25;5.82;;;20.60;99.90;;;;;;4963904;28;20075;-91
2021/06/22 12:55:08;;;;;;;7.57;5.85;;;20.70;99.90;;;;;;4963090;28;20058;-93
2021/06/22 12:58:43;;;;;;;7.10;5.55;;;20.50;99.90;;;;;;4913515;29;20052;-93
2021/06/22 13:16:45;;;;;;;6.03;3.83;;;20.10;99.90;;;;;;4918778;29;20638;-92
2021/06/22 13:46:38;;;;;;;4.22;1.75;;;27.50;99.90;;;;;;4828723;29;20811;-89
2021/06/22 13:49:09;;;;;;;2.00;1.45;;;28.50;97.30;;;;;;4914611;29;20094;-92
2021/06/22 13:51:39;;;;;;;3.10;1.70;;;28.20;94.20;;;;;;4952134;28;20454;-89
2021/06/22 13:54:28;;;;;;;1.83;1.60;;;27.20;96.40;;;;;;4959913;28;20055;-90
2021/06/22 13:56:55;;;;;;;2.30;1.90;;;26.30;98.40;;;;;;4954947;28;20043;-91
2021/06/22 13:59:22;;;;;;;7.63;1.70;;;25.60;99.90;;;;;;4972308;28;20058;-89
2021/06/22 14:02:09;;;;;;;2.53;2.20;;;26.30;99.90;;;;;;4952297;28;20069;-91
2021/06/22 14:04:42;;;;;;;5.22;2.00;;;26.60;97.80;;;;;;4947908;28;20050;-91
2021/06/22 14:07:27;;;;;;;5.55;2.00;;;26.60;99.00;;;;;;4972079;28;20046;-92
2021/06/22 14:09:56;;;;;;;1.80;1.40;;;26.40;96.80;;;;;;4964308;28;20043;-92
2021/06/22 14:12:41;;;;;;;4.50;1.50;;;25.90;95.00;;;;;;4983475;28;20563;-93
2021/06/22 14:15:09;;;;;;;3.00;1.52;;;26.50;97.70;;;;;;4957601;28;20074;-91
2021/06/22 14:17:44;;;;;;;3.40;1.40;;;27.60;94.10;;;;;;4981095;28;20057;-91
2021/06/22 14:20:28;;;;;;;2.20;1.27;;;28.20;95.40;;;;;;4963759;28;20050;-89
2021/06/22 14:23:37;;;;;;;9.75;1.75;;;29.40;91.00;;;;;;4981548;28;20042;-90
2021/06/22 14:26:15;;;;;;;6.63;1.38;;;30.30;88.90;;;;;;4967950;28;20430;-93
2021/06/22 14:28:45;;;;;;;4.05;1.27;;;30.40;74.60;;;;;;4960829;28;20492;-89
2021/06/22 14:31:12;;;;;;;2.72;0.90;;;30.50;75.00;;;;;;4956886;28;20082;-88
2021/06/22 14:33:39;;;;;;;8.45;1.23;;;30.60;75.00;;;;;;4946747;28;20458;-92
2021/06/22 14:36:06;;;;;;;5.03;1.25;;;30.60;75.00;;;;;;4962762;28;20134;-92
2021/06/22 14:38:35;;;;;;;1.77;1.10;;;30.50;68.10;;;;;;4965927;28;20046;-90
2021/06/22 14:41:03;;;;;;;2.65;1.20;;;30.10;66.70;;;;;;4960946;28;20130;-92
2021/06/22 14:43:30;;;;;;;1.60;1.10;;;30.00;65.70;;;;;;4972731;28;20042;-92
2021/06/22 14:46:11;;;;;;;2.08;1.40;;;28.90;68.40;;;;;;4951567;28;20054;-90
2021/06/22 14:48:42;;;;;;;6.63;1.30;;;27.80;77.10;;;;;;4943999;28;20047;-90
2021/06/22 14:51:09;;;;;;;1.60;1.20;;;26.60;84.40;;;;;;4972519;28;20293;-90
2021/06/22 14:53:36;;;;;;;4.50;1.05;;;25.60;85.00;;;;;;4981085;28;20437;-92
2021/06/22 14:56:05;;;;;;;4.32;1.35;;;25.20;91.60;;;;;;4955640;28;20134;-92
2021/06/22 14:58:34;;;;;;;3.97;1.63;;;25.20;91.70;;;;;;4962581;28;20050;-90
2021/06/22 15:01:02;;;;;;;4.38;1.52;;;25.90;92.40;;;;;;4963590;28;20062;-90
2021/06/22 15:03:29;;;;;;;5.57;1.25;;;27.70;90.60;;;;;;4954841;28;20090;-88
2021/06/22 15:06:10;;;;;;;3.33;1.42;;;29.10;74.60;;;;;;4972228;28;20043;-88
2021/06/22 15:08:37;;;;;;;1.58;1.17;;;30.30;70.20;;;;;;4955669;28;20077;-88
2021/06/22 15:11:07;;;;;;;2.55;1.40;;;30.90;65.40;;;;;;4961803;28;20138;-89
2021/06/22 15:13:33;;;;;;;8.35;3.88;;;30.10;68.10;;;;;;4971508;28;20039;-89
2021/06/22 15:16:00;;;;;;;3.13;2.15;;;29.50;70.90;;;;;;4960956;28;20043;-92
2021/06/22 15:18:27;;;;;;;3.60;1.30;;;28.90;72.20;;;;;;4958784;28;20130;-90
2021/06/22 15:20:54;;;;;;;1.48;1.13;;;28.00;70.70;;;;;;4972195;28;20107;-89
2021/06/22 15:23:21;;;;;;;2.15;1.10;;;27.40;75.30;;;;;;4975832;28;20134;-90
2021/06/22 15:25:48;;;;;;;1.70;1.20;;;26.90;80.40;;;;;;4976328;28;20082;-89
2021/06/22 15:28:20;;;;;;;3.08;1.27;;;26.10;83.00;;;;;;4975196;28;20055;-93
2021/06/22 15:30:48;;;;;;;1.67;1.10;;;25.50;86.80;;;;;;4966111;28;20129;-91
2021/06/22 15:33:16;;;;;;;1.65;1.25;;;25.10;89.50;;;;;;4974431;28;20478;-89
2021/06/22 15:35:43;;;;;;;1.48;1.17;;;24.50;90.90;;;;;;4968122;28;20130;-91
2021/06/22 15:38:11;;;;;;;3.17;1.48;;;24.00;91.40;;;;;;4974504;28;20145;-90
2021/06/22 15:40:40;;;;;;;3.28;1.50;;;23.60;93.30;;;;;;4975893;28;20113;-89
2021/06/22 15:43:07;;;;;;;2.20;1.38;;;23.20;96.90;;;;;;4973474;28;20082;-89
2021/06/22 15:45:37;;;;;;;2.42;1.70;;;22.90;99.90;;;;;;4965090;28;20217;-86
2021/06/22 15:48:08;;;;;;;4.18;1.90;;;22.80;99.90;;;;;;4963798;28;20072;-90
2021/06/22 15:50:39;;;;;;;2.90;2.05;;;22.70;99.90;;;;;;4958888;28;20180;-89
2021/06/22 15:53:08;;;;;;;2.85;1.73;;;22.70;99.90;;;;;;4972108;28;20070;-88
2021/06/22 15:55:36;;;;;;;4.60;1.75;;;22.40;99.90;;;;;;4952456;28;20058;-89
2021/06/22 15:58:06;;;;;;;3.42;1.40;;;22.30;99.90;;;;;;4984217;28;20050;-87
2021/06/22 16:00:34;;;;;;;3.08;1.60;;;22.30;99.90;;;;;;4967796;28;20073;-88
2021/06/22 16:03:11;;;;;;;2.33;1.58;;;22.40;99.90;;;;;;4962831;28;20082;-86
2021/06/22 16:05:42;;;;;;;2.33;1.40;;;22.80;99.90;;;;;;4964379;28;20504;-88
2021/06/22 16:08:09;;;;;;;5.10;1.67;;;23.30;99.90;;;;;;4970817;28;20062;-88
2021/06/22 16:10:39;;;;;;;2.40;1.40;;;24.00;99.90;;;;;;4968053;28;20133;-87
2021/06/22 16:13:12;;;;;;;5.07;1.42;;;24.60;99.90;;;;;;4969011;28;20051;-87
2021/06/22 16:15:43;;;;;;;5.53;1.52;;;24.80;99.90;;;;;;4970217;28;20070;-88
2021/06/22 16:18:17;;;;;;;3.17;1.75;;;24.70;99.90;;;;;;4956681;28;20050;-87
2021/06/22 16:20:47;;;;;;;1.52;1.42;;;24.30;99.90;;;;;;4968669;28;20129;-86
2021/06/22 16:23:13;;;;;;;3.15;1.73;;;24.10;99.90;;;;;;4966036;28;20053;-87
2021/06/22 16:25:42;;;;;;;2.70;1.55;;;23.90;99.90;;;;;;4972955;28;20129;-87
2021/06/22 16:28:15;;;;;;;1.42;1.33;;;23.90;99.90;;;;;;4970008;28;20054;-88
2021/06/22 16:30:42;;;;;;;4.00;1.92;;;23.80;99.90;;;;;;4954762;28;20095;-87
2021/06/22 16:33:09;;;;;;;1.95;1.75;;;23.40;99.90;;;;;;4967905;28;20070;-87
2021/06/22 16:35:38;;;;;;;2.55;1.83;;;23.10;99.90;;;;;;4964618;28;20066;-87
2021/06/22 16:38:08;;;;;;;3.83;1.90;;;23.20;99.90;;;;;;4968869;28;20054;-86
2021/06/22 16:40:34;;;;;;;2.17;1.90;;;23.20;99.90;;;;;;4974828;28;20054;-87
2021/06/22 16:43:07;;;;;;;5.45;2.38;;;22.90;99.90;;;;;;4981301;28;20072;-87
2021/06/22 16:45:39;;;;;;;3.17;2.20;;;22.60;99.90;;;;;;4956436;28;20134;-86
2021/06/22 16:48:12;;;;;;;5.35;2.47;;;22.30;99.90;;;;;;4973413;28;21611;-87
2021/06/22 16:50:40;;;;;;;5.35;2.55;;;22.00;99.90;;;;;;4974254;28;20058;-87
2021/06/22 16:53:08;;;;;;;2.72;2.53;;;21.60;99.90;;;;;;4952116;28;20125;-87
2021/06/22 16:55:37;;;;;;;3.90;2.58;;;21.30;99.90;;;;;;4973605;28;20458;-88
2021/06/22 16:58:05;;;;;;;4.60;2.20;;;20.90;99.90;;;;;;4957455;28;20058;-89
2021/06/22 17:00:35;;;;;;;4.50;2.72;;;20.60;99.90;;;;;;4975892;28;20082;-87
2021/06/22 17:03:05;;;;;;;2.97;2.53;;;20.30;99.90;;;;;;4959467;28;20051;-88
2021/06/22 17:05:36;;;;;;;3.70;2.70;;;20.10;99.90;;;;;;4957676;28;20122;-87
2021/06/22 17:08:04;;;;;;;3.45;2.50;;;20.10;99.90;;;;;;4957165;28;20047;-88
2021/06/22 17:10:31;;;;;;;4.35;2.60;;;19.90;99.90;;;;;;4970683;28;20185;-86
2021/06/22 17:12:59;;;;;;;4.90;2.78;;;19.90;99.90;;;;;;4967831;28;20075;-91
2021/06/22 17:15:28;;;;;;;4.80;2.45;;;19.90;99.90;;;;;;4971650;28;20102;-89
2021/06/22 17:17:56;;;;;;;4.55;2.70;;;19.80;99.90;;;;;;4967297;28;20142;-91
2021/06/22 17:20:36;;;;;;;5.65;2.90;;;19.70;99.90;;;;;;4962591;28;21209;-92
2021/06/22 17:23:07;;;;;;;3.05;2.40;;;19.70;99.90;;;;;;4956591;28;20081;-90
2021/06/22 17:25:35;;;;;;;39.72;27.05;;;19.80;99.90;;;;;;4969461;28;20077;-91
2021/06/22 17:28:04;;;;;;;19.48;13.88;;;19.90;99.90;;;;;;4954913;28;20072;-90
2021/06/22 17:30:31;;;;;;;27.10;24.40;;;20.00;99.90;;;;;;4948955;28;20066;-90
2021/06/22 17:33:04;;;;;;;48.42;27.50;;;20.20;99.90;;;;;;4974086;28;20046;-89
2021/06/22 17:35:32;;;;;;;112.50;98.35;;;20.40;99.90;;;;;;4969774;28;20139;-93
2021/06/22 17:37:59;;;;;;;40.38;27.33;;;20.70;99.90;;;;;;4937879;28;20051;-90
2021/06/22 17:40:26;;;;;;;119.40;101.13;;;21.00;99.90;;;;;;4970182;28;20058;-93
2021/06/22 17:42:53;;;;;;;20.23;14.20;;;21.10;99.90;;;;;;4956906;28;20477;-91
2021/06/22 17:45:27;;;;;;;11.15;7.55;;;21.40;99.90;;;;;;4952778;28;20059;-93
2021/06/22 17:47:58;;;;;;;3.72;3.40;;;21.50;99.90;;;;;;4951435;28;20053;-94
2021/06/22 17:50:26;;;;;;;10.50;4.13;;;21.60;99.90;;;;;;4972313;28;20110;-91
2021/06/22 17:52:53;;;;;;;11.43;6.15;;;21.60;99.90;;;;;;4954509;28;20043;-91
2021/06/22 17:55:21;;;;;;;16.48;11.93;;;21.70;99.90;;;;;;4966491;28;20102;-92
2021/06/22 17:57:51;;;;;;;25.55;15.93;;;21.60;99.90;;;;;;4937346;28;20175;-90
2021/06/22 18:00:23;;;;;;;14.00;9.32;;;21.50;99.90;;;;;;4972097;28;20042;-90
2021/06/22 18:02:51;;;;;;;10.05;5.78;;;21.40;99.90;;;;;;4955281;28;20074;-90
2021/06/22 18:05:18;;;;;;;4.97;3.42;;;21.20;99.90;;;;;;4967749;28;20130;-90
2021/06/22 18:07:52;;;;;;;7.15;3.22;;;21.10;99.90;;;;;;4970261;28;20455;-93
2021/06/22 18:10:21;;;;;;;3.35;3.00;;;21.00;99.90;;;;;;4961711;28;20051;-91
2021/06/22 18:12:56;;;;;;;3.80;2.40;;;21.00;99.90;;;;;;4971746;28;20062;-92
2021/06/22 18:15:27;;;;;;;4.15;2.70;;;20.90;99.90;;;;;;4970484;28;20055;-92
2021/06/22 18:17:55;;;;;;;4.97;2.50;;;20.80;99.90;;;;;;4949035;28;20117;-90
2021/06/22 18:20:23;;;;;;;3.03;2.65;;;20.70;99.90;;;;;;4971388;28;20142;-92
2021/06/22 18:22:52;;;;;;;3.35;2.42;;;20.60;99.90;;;;;;4966846;28;20051;-90
2021/06/22 18:25:23;;;;;;;5.07;2.80;;;20.50;99.90;;;;;;4970912;28;20097;-91
2021/06/22 18:27:50;;;;;;;4.97;3.20;;;20.30;99.90;;;;;;4971112;28;20058;-90
2021/06/22 18:30:18;;;;;;;3.72;2.83;;;20.10;99.90;;;;;;4962823;28;20141;-90
2021/06/22 18:32:48;;;;;;;2.85;2.40;;;20.00;99.90;;;;;;4951059;28;20053;-90
2021/06/22 18:35:17;;;;;;;5.68;3.13;;;19.90;99.90;;;;;;4969328;28;20141;-90
2021/06/22 18:37:46;;;;;;;3.80;2.75;;;19.70;99.90;;;;;;4965285;28;20441;-91
2021/06/22 18:40:17;;;;;;;4.25;2.58;;;19.70;99.90;;;;;;4952914;28;20074;-90